Time;durP1;ratioP1;P1;durP2;ratioP2;P2;SDS_P1;SDS_P2;PMS_P1;PMS_P2;Temp;Humidity;BMP_temperature;BMP_pressure;BME280_temperature;BME280_humidity;BME280_pressure;Samples;Min_cycle;Max_cycle;Signal;HPM_P1;HPM_P2
2022/03/15 00:01:35;;;;;;;40.80;20.65;;;;;;;-2.02;52.14;99512.78;1687037;85;21020;-81
2022/03/15 00:04:02;;;;;;;43.33;19.75;;;;;;;-2.02;52.74;99508.89;1687121;85;21044;-82
2022/03/15 00:06:29;;;;;;;42.25;20.32;;;;;;;-2.00;51.36;99513.73;1690775;85;21052;-81
2022/03/15 00:08:55;;;;;;;47.48;20.17;;;;;;;-2.00;50.88;99497.23;1687421;84;21013;-79
2022/03/15 00:11:22;;;;;;;43.55;20.35;;;;;;;-2.03;51.51;99492.80;1680734;84;21034;-78
2022/03/15 00:13:48;;;;;;;47.23;21.33;;;;;;;-2.00;51.10;99495.94;1691480;85;20992;-79
2022/03/15 00:16:15;;;;;;;45.70;19.50;;;;;;;-1.98;51.05;99487.83;1691671;83;20950;-79
2022/03/15 00:18:42;;;;;;;43.00;21.23;;;;;;;-1.99;51.10;99486.92;1689870;83;21119;-79
2022/03/15 00:21:10;;;;;;;41.95;19.82;;;;;;;-1.96;51.08;99487.90;1687776;84;20981;-86
2022/03/15 00:23:38;;;;;;;38.30;18.80;;;;;;;-2.03;52.83;99483.70;1692034;84;21100;-82
2022/03/15 00:26:05;;;;;;;42.00;20.25;;;;;;;-2.06;53.41;99483.59;1696073;84;21000;-88
2022/03/15 00:28:32;;;;;;;44.18;20.60;;;;;;;-2.02;51.42;99480.31;1697950;84;21524;-85
2022/03/15 00:31:00;;;;;;;39.50;20.08;;;;;;;-2.01;51.38;99480.78;1684328;84;20993;-89
2022/03/15 00:33:29;;;;;;;44.03;21.00;;;;;;;-1.99;51.99;99479.12;1687418;85;21088;-81
2022/03/15 00:35:56;;;;;;;39.95;20.02;;;;;;;-1.96;52.05;99478.80;1652620;86;21068;-84
2022/03/15 00:38:24;;;;;;;37.88;19.77;;;;;;;-2.02;52.31;99481.61;1642865;87;21118;-90
2022/03/15 00:40:54;;;;;;;42.80;19.77;;;;;;;-2.01;52.54;99483.37;1657547;85;21096;-89
2022/03/15 00:43:22;;;;;;;38.38;19.17;;;;;;;-1.99;51.70;99476.96;1656806;87;21163;-87
2022/03/15 00:45:55;;;;;;;37.30;18.40;;;;;;;-2.02;52.49;99455.62;1645771;85;21036;-83
2022/03/15 00:48:22;;;;;;;39.38;20.10;;;;;;;-2.01;52.80;99447.41;1713602;83;21068;-83
2022/03/15 00:50:49;;;;;;;46.02;22.40;;;;;;;-2.04;51.90;99440.80;1714636;83;20977;-83
2022/03/15 00:53:17;;;;;;;49.58;22.40;;;;;;;-2.04;52.04;99441.66;1712516;83;21000;-84
2022/03/15 00:55:44;;;;;;;49.33;22.50;;;;;;;-2.08;51.47;99439.74;1709474;83;21070;-84
2022/03/15 00:58:11;;;;;;;52.03;23.80;;;;;;;-2.17;51.25;99423.74;1715390;83;21031;-83
2022/03/15 01:00:40;;;;;;;44.93;22.67;;;;;;;-2.18;51.57;99431.06;1715256;83;21015;-84
2022/03/15 01:03:08;;;;;;;44.88;21.23;;;;;;;-2.28;54.16;99433.67;1713075;83;20964;-85
2022/03/15 01:05:35;;;;;;;38.60;19.62;;;;;;;-2.34;52.94;99422.98;1717180;83;20965;-91
2022/03/15 01:08:01;;;;;;;43.15;20.00;;;;;;;-2.34;52.53;99411.30;1686874;84;21612;-93
2022/03/15 01:10:28;;;;;;;39.58;18.62;;;;;;;-2.33;52.25;99411.80;1714889;83;21030;-90
2022/03/15 01:12:55;;;;;;;34.75;18.70;;;;;;;-2.34;53.10;99417.79;1715252;83;22043;-91
2022/03/15 01:15:23;;;;;;;40.03;19.27;;;;;;;-2.33;52.91;99420.89;1722707;83;21004;-89
2022/03/15 01:17:50;;;;;;;44.63;19.48;;;;;;;-2.33;52.29;99426.95;1723532;83;21004;-88
2022/03/15 01:20:20;;;;;;;41.20;19.42;;;;;;;-2.33;53.50;99436.47;1722319;83;21462;-87
2022/03/15 01:22:46;;;;;;;34.75;17.95;;;;;;;-2.40;53.63;99428.81;1722123;83;21048;-87
2022/03/15 01:25:13;;;;;;;34.53;17.25;;;;;;;-2.40;54.13;99441.36;1721477;83;21409;-87
2022/03/15 01:27:41;;;;;;;39.65;17.05;;;;;;;-2.39;53.29;99437.97;1721398;83;21035;-87
2022/03/15 01:30:08;;;;;;;31.23;16.15;;;;;;;-2.39;52.97;99437.97;1721575;83;21502;-87
2022/03/15 01:32:37;;;;;;;36.58;16.10;;;;;;;-2.38;53.87;99432.34;1676761;85;21045;-87
2022/03/15 01:35:08;;;;;;;32.55;16.02;;;;;;;-2.39;53.17;99429.28;1675528;85;20989;-88
2022/03/15 01:37:34;;;;;;;32.88;16.85;;;;;;;-2.42;54.02;99439.52;1719051;83;21068;-88
2022/03/15 01:40:04;;;;;;;30.35;16.10;;;;;;;-2.41;53.25;99437.42;1718210;83;21041;-88
2022/03/15 01:42:30;;;;;;;33.28;17.20;;;;;;;-2.42;53.51;99433.92;1699322;83;20998;-90
2022/03/15 01:44:59;;;;;;;37.98;17.35;;;;;;;-2.41;52.73;99427.04;1699446;84;21499;-90
2022/03/15 01:47:26;;;;;;;33.55;16.70;;;;;;;-2.47;53.39;99422.84;1698939;83;21024;-91
2022/03/15 01:49:52;;;;;;;36.60;17.52;;;;;;;-2.49;52.75;99420.16;1699127;84;21078;-90
2022/03/15 01:52:22;;;;;;;33.67;16.67;;;;;;;-2.55;53.17;99428.58;1699317;84;20989;-89
2022/03/15 01:54:51;;;;;;;39.25;18.57;;;;;;;-2.56;52.90;99422.92;1699079;84;21423;-89
2022/03/15 01:57:18;;;;;;;31.00;16.60;;;;;;;-2.63;55.47;99418.67;1699032;84;20964;-89
2022/03/15 01:59:45;;;;;;;36.23;17.62;;;;;;;-2.63;54.36;99426.03;1698569;84;21101;-88
2022/03/15 02:02:13;;;;;;;35.10;18.32;;;;;;;-2.66;54.66;99424.61;1665234;86;21056;-91
2022/03/15 02:04:40;;;;;;;36.95;16.32;;;;;;;-2.69;54.61;99425.75;1665447;86;21026;-90
2022/03/15 02:07:12;;;;;;;32.00;17.07;;;;;;;-2.79;55.57;99429.21;1665115;86;21051;-91
2022/03/15 02:09:40;;;;;;;37.60;17.85;;;;;;;-2.83;55.21;99437.66;1665336;86;21000;-91
2022/03/15 02:12:10;;;;;;;38.42;19.02;;;;;;;-2.96;55.97;99442.67;1665241;86;21028;-91
2022/03/15 02:14:37;;;;;;;35.23;18.45;;;;;;;-3.02;56.52;99441.48;1657541;87;21033;-91
2022/03/15 02:17:04;;;;;;;32.80;16.97;;;;;;;-3.06;55.84;99441.33;1664633;86;21418;-91
2022/03/15 02:19:33;;;;;;;39.05;18.77;;;;;;;-3.13;56.61;99443.55;1657512;87;21040;-91
2022/03/15 02:22:00;;;;;;;47.60;19.17;;;;;;;-3.20;57.11;99444.98;1657467;87;21025;-90
2022/03/15 02:24:27;;;;;;;41.92;19.37;;;;;;;-3.25;56.82;99442.14;1657660;87;21502;-91
2022/03/15 02:26:53;;;;;;;39.55;17.77;;;;;;;-3.28;57.28;99449.76;1657387;87;20996;-90
2022/03/15 02:29:22;;;;;;;36.98;17.15;;;;;;;-3.33;56.89;99455.13;1638124;88;21505;-90
2022/03/15 02:31:49;;;;;;;41.08;18.90;;;;;;;-3.32;56.12;99444.84;1698611;84;21031;-91
2022/03/15 02:34:18;;;;;;;40.52;17.82;;;;;;;-3.31;56.95;99455.69;1699092;83;21039;-89
2022/03/15 02:36:44;;;;;;;36.70;16.48;;;;;;;-3.28;56.94;99456.67;1698895;84;20982;-89
2022/03/15 02:39:11;;;;;;;34.50;16.75;;;;;;;-3.29;57.01;99454.47;1698519;84;21068;-89
2022/03/15 02:41:38;;;;;;;37.40;18.00;;;;;;;-3.31;57.04;99458.70;1705173;83;21467;-88
2022/03/15 02:44:06;;;;;;;34.75;16.70;;;;;;;-3.31;56.99;99450.50;1707167;84;20993;-88
2022/03/15 02:46:34;;;;;;;37.20;16.77;;;;;;;-3.27;57.40;99442.89;1706854;84;20985;-88
2022/03/15 02:49:02;;;;;;;34.65;15.78;;;;;;;-3.24;56.55;99443.92;1707060;84;21084;-88
2022/03/15 02:51:31;;;;;;;35.83;16.45;;;;;;;-3.19;56.30;99438.55;1707140;84;20994;-87
2022/03/15 02:54:04;;;;;;;38.25;16.95;;;;;;;-3.14;56.16;99445.27;1707251;84;21053;-88
2022/03/15 02:56:29;;;;;;;30.48;16.40;;;;;;;-3.17;55.83;99442.95;1706813;84;21016;-88
2022/03/15 02:58:56;;;;;;;39.88;17.07;;;;;;;-3.15;55.71;99451.28;1707128;84;21009;-89
2022/03/15 03:01:24;;;;;;;27.20;15.70;;;;;;;-3.15;55.45;99449.98;1701665;84;21482;-89
2022/03/15 03:03:51;;;;;;;38.15;18.27;;;;;;;-3.14;55.41;99452.15;1675719;85;21059;-89
2022/03/15 03:06:19;;;;;;;35.60;16.40;;;;;;;-3.12;55.37;99456.59;1675174;86;21031;-89
2022/03/15 03:08:46;;;;;;;37.55;18.12;;;;;;;-3.15;55.54;99447.39;1675680;86;21458;-89
2022/03/15 03:11:13;;;;;;;32.45;16.17;;;;;;;-3.16;55.24;99459.85;1675855;86;21152;-89
2022/03/15 03:13:42;;;;;;;34.03;16.52;;;;;;;-3.16;55.25;99471.95;1675906;86;21406;-90
2022/03/15 03:16:09;;;;;;;39.08;17.00;;;;;;;-3.17;55.24;99468.88;1675980;86;21060;-90
2022/03/15 03:18:36;;;;;;;34.67;17.05;;;;;;;-3.14;55.20;99454.75;1675961;86;21468;-88
2022/03/15 03:21:05;;;;;;;32.40;16.10;;;;;;;-3.13;55.26;99461.31;1676044;86;21067;-88
2022/03/15 03:23:35;;;;;;;38.35;17.70;;;;;;;-3.12;55.18;99459.19;1675915;85;21041;-88
2022/03/15 03:26:04;;;;;;;30.43;16.02;;;;;;;-3.13;55.96;99454.83;1675819;86;21075;-88
2022/03/15 03:28:38;;;;;;;36.93;16.30;;;;;;;-3.15;57.69;99464.25;1701150;84;21004;-88
2022/03/15 03:31:09;;;;;;;30.37;15.63;;;;;;;-3.14;56.85;99463.42;1675869;84;21066;-88
2022/03/15 03:33:39;;;;;;;31.15;15.13;;;;;;;-3.14;56.95;99462.13;1682295;84;21040;-87
2022/03/15 03:36:06;;;;;;;35.48;15.75;;;;;;;-3.09;55.97;99458.05;1695459;85;21036;-87
2022/03/15 03:38:33;;;;;;;33.80;16.45;;;;;;;-3.06;56.64;99464.67;1695461;84;21414;-87
2022/03/15 03:41:01;;;;;;;35.15;16.62;;;;;;;-3.01;56.42;99462.72;1700049;83;21055;-88
2022/03/15 03:43:29;;;;;;;34.83;16.67;;;;;;;-2.96;56.51;99467.32;1707455;84;21028;-88
2022/03/15 03:45:57;;;;;;;31.05;16.07;;;;;;;-2.93;56.06;99467.48;1707465;83;21068;-87
2022/03/15 03:48:25;;;;;;;33.88;16.32;;;;;;;-2.87;55.64;99460.37;1707374;84;21007;-88
2022/03/15 03:50:53;;;;;;;32.48;16.40;;;;;;;-2.86;56.28;99453.50;1707539;84;21052;-88
2022/03/15 03:53:25;;;;;;;29.35;15.48;;;;;;;-2.87;55.46;99444.81;1707338;84;21047;-89
2022/03/15 03:55:49;;;;;;;37.63;17.02;;;;;;;-2.84;55.64;99439.78;1704067;84;21035;-89
2022/03/15 03:58:16;;;;;;;33.30;16.05;;;;;;;-2.83;55.53;99445.45;1673346;86;21075;-88
2022/03/15 04:00:43;;;;;;;30.62;15.63;;;;;;;-2.82;56.42;99432.08;1671652;86;21580;-89
2022/03/15 04:03:13;;;;;;;30.57;16.23;;;;;;;-2.77;55.41;99429.29;1673244;86;21434;-89
2022/03/15 04:05:38;;;;;;;35.25;16.52;;;;;;;-2.79;55.16;99417.53;1673044;86;21502;-88
2022/03/15 04:08:05;;;;;;;35.35;16.40;;;;;;;-2.80;55.24;99431.33;1673768;86;21024;-88
2022/03/15 04:10:32;;;;;;;30.77;15.68;;;;;;;-2.83;55.11;99436.79;1673373;85;21091;-88
2022/03/15 04:13:02;;;;;;;34.53;16.87;;;;;;;-2.85;55.03;99439.30;1671651;86;21029;-88
2022/03/15 04:15:31;;;;;;;37.17;17.07;;;;;;;-2.82;55.29;99434.24;1673244;86;21399;-87
2022/03/15 04:17:57;;;;;;;34.03;16.60;;;;;;;-2.81;55.22;99429.95;1672985;86;21104;-88
2022/03/15 04:20:24;;;;;;;32.80;16.48;;;;;;;-2.78;55.00;99421.03;1673097;86;21032;-88
2022/03/15 04:22:50;;;;;;;39.50;16.45;;;;;;;-2.85;55.15;99415.95;1673290;86;21067;-89
2022/03/15 04:25:18;;;;;;;35.83;17.65;;;;;;;-2.84;55.07;99419.42;1673099;86;21004;-90
2022/03/15 04:27:45;;;;;;;36.93;17.57;;;;;;;-2.82;56.38;99430.34;1672859;86;21040;-89
2022/03/15 04:30:12;;;;;;;35.15;17.17;;;;;;;-2.85;55.92;99434.52;1671933;86;21379;-88
2022/03/15 04:32:39;;;;;;;33.90;16.62;;;;;;;-2.85;56.06;99439.70;1673111;86;21023;-89
2022/03/15 04:35:07;;;;;;;37.73;17.70;;;;;;;-2.89;55.73;99435.17;1671920;86;21090;-89
2022/03/15 04:37:33;;;;;;;33.95;16.00;;;;;;;-2.88;55.94;99441.74;1673103;86;21042;-89
2022/03/15 04:40:02;;;;;;;32.53;16.85;;;;;;;-2.86;55.61;99440.52;1673126;86;21471;-89
2022/03/15 04:42:28;;;;;;;32.95;15.75;;;;;;;-2.85;55.74;99441.00;1666697;84;21090;-87
2022/03/15 04:44:55;;;;;;;34.67;16.37;;;;;;;-2.84;55.55;99437.19;1640913;87;21044;-88
2022/03/15 04:47:23;;;;;;;36.42;15.25;;;;;;;-2.81;56.42;99452.91;1643139;87;21513;-88
2022/03/15 04:49:50;;;;;;;33.42;16.95;;;;;;;-2.80;55.88;99449.49;1676003;86;21003;-88
2022/03/15 04:52:17;;;;;;;34.18;16.32;;;;;;;-2.80;57.33;99451.19;1676216;86;21067;-89
2022/03/15 04:54:45;;;;;;;40.05;17.00;;;;;;;-2.79;55.97;99445.17;1676045;85;21007;-89
2022/03/15 04:57:12;;;;;;;35.90;16.02;;;;;;;-2.75;56.06;99439.75;1676079;86;21056;-89
2022/03/15 04:59:38;;;;;;;34.50;15.43;;;;;;;-2.77;56.92;99441.36;1676171;85;21023;-90
2022/03/15 05:02:05;;;;;;;34.60;16.52;;;;;;;-2.76;56.28;99440.53;1676003;86;21032;-89
2022/03/15 05:04:32;;;;;;;34.40;16.17;;;;;;;-2.71;56.12;99436.45;1676112;85;21051;-89
2022/03/15 05:06:59;;;;;;;32.17;15.72;;;;;;;-2.67;55.99;99458.75;1676107;86;21000;-90
2022/03/15 05:09:27;;;;;;;30.60;15.70;;;;;;;-2.65;55.54;99454.50;1675996;85;21016;-89
2022/03/15 05:11:54;;;;;;;34.65;16.10;;;;;;;-2.60;56.74;99451.23;1676042;86;21059;-89
2022/03/15 05:14:20;;;;;;;34.88;15.98;;;;;;;-2.58;55.95;99443.13;1676177;86;21004;-87
2022/03/15 05:16:47;;;;;;;31.23;16.10;;;;;;;-2.57;56.34;99430.20;1676054;86;21039;-86
2022/03/15 05:19:16;;;;;;;31.00;16.75;;;;;;;-2.47;55.65;99431.92;1676098;85;21012;-87
2022/03/15 05:21:44;;;;;;;32.00;16.45;;;;;;;-2.40;55.72;99447.85;1676140;86;21528;-87
2022/03/15 05:24:13;;;;;;;35.17;17.20;;;;;;;-2.37;56.29;99457.48;1676231;86;21074;-88
2022/03/15 05:26:41;;;;;;;39.48;18.75;;;;;;;-2.35;55.45;99437.69;1676272;86;21062;-87
2022/03/15 05:29:10;;;;;;;38.15;19.70;;;;;;;-2.32;55.26;99440.41;1676199;85;21052;-88
2022/03/15 05:31:37;;;;;;;38.80;18.92;;;;;;;-2.31;55.88;99440.91;1649269;86;21027;-88
2022/03/15 05:34:03;;;;;;;40.67;19.98;;;;;;;-2.28;55.19;99437.56;1674204;85;21006;-88
2022/03/15 05:36:30;;;;;;;33.50;18.10;;;;;;;-2.18;54.87;99435.86;1670679;86;21034;-86
2022/03/15 05:38:57;;;;;;;39.67;19.80;;;;;;;-2.12;54.85;99427.44;1630671;87;21039;-86
2022/03/15 05:41:23;;;;;;;32.40;17.57;;;;;;;-2.05;54.66;99432.49;1655587;86;21075;-86
2022/03/15 05:43:52;;;;;;;31.23;15.83;;;;;;;-2.00;54.75;99421.49;1704148;83;20989;-86
2022/03/15 05:46:19;;;;;;;29.15;16.90;;;;;;;-1.94;54.66;99423.48;1718840;83;20973;-87
2022/03/15 05:48:46;;;;;;;34.30;15.95;;;;;;;-1.83;54.77;99425.66;1704425;84;21053;-88
2022/03/15 05:51:13;;;;;;;31.37;15.45;;;;;;;-1.76;54.61;99429.89;1704489;84;21041;-87
2022/03/15 05:53:39;;;;;;;26.80;15.55;;;;;;;-1.70;54.60;99435.77;1704579;84;20977;-89
2022/03/15 05:56:07;;;;;;;33.88;15.35;;;;;;;-1.63;54.28;99436.50;1704541;84;21061;-88
2022/03/15 05:58:34;;;;;;;28.80;14.98;;;;;;;-1.57;54.00;99436.28;1704340;84;21001;-88
2022/03/15 06:01:00;;;;;;;28.62;16.95;;;;;;;-1.53;53.78;99436.89;1704481;83;21143;-88
2022/03/15 06:03:27;;;;;;;33.20;16.32;;;;;;;-1.47;53.55;99447.55;1709088;84;21065;-88
2022/03/15 06:05:57;;;;;;;43.52;18.60;;;;;;;-1.44;53.52;99435.08;1704231;84;21016;-89
2022/03/15 06:08:23;;;;;;;38.60;19.02;;;;;;;-1.38;53.45;99433.62;1670351;86;21051;-88
2022/03/15 06:10:49;;;;;;;38.50;16.17;;;;;;;-1.32;53.20;99448.61;1704239;84;21024;-88
2022/03/15 06:13:16;;;;;;;32.75;17.52;;;;;;;-1.35;53.37;99447.17;1704071;84;20996;-88
2022/03/15 06:15:42;;;;;;;32.13;16.50;;;;;;;-1.30;53.24;99439.58;1678743;84;21052;-87
2022/03/15 06:18:10;;;;;;;33.98;17.20;;;;;;;-1.24;53.51;99451.09;1702092;84;21048;-88
2022/03/15 06:20:45;;;;;;;34.53;17.52;;;;;;;-1.22;53.46;99455.97;1690559;85;21012;-89
2022/03/15 06:23:12;;;;;;;57.80;26.23;;;;;;;-1.11;53.32;99451.22;1688869;85;21470;-88
2022/03/15 06:25:38;;;;;;;37.40;17.98;;;;;;;-1.05;53.07;99451.86;1671072;86;20945;-88
2022/03/15 06:28:05;;;;;;;39.75;17.85;;;;;;;-0.99;52.99;99446.03;1665259;86;21043;-87
2022/03/15 06:30:31;;;;;;;34.80;18.27;;;;;;;-0.91;52.86;99441.12;1705084;83;21429;-87
2022/03/15 06:32:59;;;;;;;35.63;17.65;;;;;;;-0.85;52.96;99433.55;1704764;84;21023;-87
2022/03/15 06:35:28;;;;;;;38.58;17.73;;;;;;;-0.77;52.63;99437.76;1706156;83;21479;-87
2022/03/15 06:37:55;;;;;;;36.42;17.35;;;;;;;-0.67;52.31;99439.49;1708519;83;21030;-88
2022/03/15 06:40:25;;;;;;;37.08;18.32;;;;;;;-0.62;51.85;99433.58;1704879;84;21005;-88
2022/03/15 06:42:54;;;;;;;35.70;16.27;;;;;;;-0.55;51.77;99432.97;1676187;86;21564;-87
2022/03/15 06:45:21;;;;;;;35.73;17.20;;;;;;;-0.42;51.48;99433.92;1682189;83;21020;-87
2022/03/15 06:47:49;;;;;;;31.02;17.25;;;;;;;-0.32;51.48;99428.66;1727218;83;21087;-88
2022/03/15 06:50:16;;;;;;;35.00;17.40;;;;;;;-0.20;51.34;99429.50;1725155;83;21008;-87
2022/03/15 06:52:46;;;;;;;35.15;16.52;;;;;;;-0.08;51.26;99426.89;1725857;83;21052;-86
2022/03/15 06:55:13;;;;;;;32.45;15.78;;;;;;;0.02;51.03;99422.89;1704199;83;21027;-85
2022/03/15 06:57:40;;;;;;;30.43;16.62;;;;;;;0.10;50.52;99422.35;1704083;84;21035;-85
2022/03/15 07:00:13;;;;;;;37.83;17.75;;;;;;;0.20;50.41;99442.23;1671184;84;21127;-85
2022/03/15 07:02:40;;;;;;;35.03;18.12;;;;;;;0.29;50.52;99429.49;1727394;83;21116;-87
2022/03/15 07:05:08;;;;;;;34.45;18.75;;;;;;;0.42;50.51;99426.02;1726913;83;21027;-87
2022/03/15 07:07:35;;;;;;;37.98;19.23;;;;;;;0.54;50.43;99426.86;1726918;83;21048;-87
2022/03/15 07:10:09;;;;;;;36.75;18.75;;;;;;;0.67;50.41;99435.59;1726649;83;20964;-87
2022/03/15 07:12:38;;;;;;;35.20;17.77;;;;;;;0.78;50.38;99430.70;1706944;83;20972;-88
2022/03/15 07:15:06;;;;;;;38.28;19.42;;;;;;;0.94;50.21;99438.63;1704528;84;21401;-87
2022/03/15 07:17:33;;;;;;;40.23;20.75;;;;;;;1.07;50.00;99447.73;1704594;84;21151;-87
2022/03/15 07:20:01;;;;;;;37.58;19.73;;;;;;;1.19;50.02;99449.85;1704328;84;20950;-88
2022/03/15 07:22:27;;;;;;;42.73;21.02;;;;;;;1.32;49.28;99449.81;1713083;83;21005;-85
2022/03/15 07:24:54;;;;;;;45.05;21.25;;;;;;;1.42;49.53;99460.15;1712592;84;21036;-85
2022/03/15 07:27:21;;;;;;;51.30;29.60;;;;;;;1.54;49.52;99451.80;1712618;84;21032;-85
2022/03/15 07:29:49;;;;;;;48.48;26.15;;;;;;;1.67;49.25;99442.16;1712581;84;21000;-85
2022/03/15 07:32:16;;;;;;;49.63;25.37;;;;;;;1.75;48.92;99445.03;1722697;83;21033;-87
2022/03/15 07:34:43;;;;;;;47.00;23.00;;;;;;;1.87;48.96;99439.69;1709918;83;21039;-89
2022/03/15 07:37:11;;;;;;;46.77;22.90;;;;;;;1.99;48.72;99450.48;1718914;83;21009;-88
2022/03/15 07:39:43;;;;;;;46.90;23.55;;;;;;;2.10;48.86;99450.80;1717315;83;21080;-88
2022/03/15 07:42:13;;;;;;;46.13;23.22;;;;;;;2.23;48.79;99452.02;1714894;83;22203;-88
2022/03/15 07:44:46;;;;;;;45.95;23.42;;;;;;;2.35;48.68;99458.91;1704361;83;21070;-89
2022/03/15 07:47:12;;;;;;;44.65;22.60;;;;;;;2.48;48.62;99457.92;1712349;83;20953;-89
2022/03/15 07:49:42;;;;;;;41.92;23.00;;;;;;;2.57;48.49;99453.38;1712575;83;20935;-90
2022/03/15 07:52:13;;;;;;;41.98;21.73;;;;;;;2.67;48.35;99452.77;1714248;83;21024;-88
2022/03/15 07:54:39;;;;;;;43.25;21.73;;;;;;;2.76;48.12;99447.77;1715772;83;21071;-89
2022/03/15 07:57:05;;;;;;;42.95;22.80;;;;;;;2.88;47.76;99452.44;1720918;83;21174;-89
2022/03/15 07:59:31;;;;;;;43.28;22.15;;;;;;;3.00;47.34;99462.74;1715842;83;21517;-89
2022/03/15 08:01:58;;;;;;;44.38;22.85;;;;;;;3.13;47.12;99468.75;1711961;83;21020;-90
2022/03/15 08:04:26;;;;;;;47.55;23.25;;;;;;;3.26;47.37;99462.06;1714395;83;21024;-90
2022/03/15 08:06:53;;;;;;;44.30;21.42;;;;;;;3.37;46.93;99447.02;1685996;84;21070;-90
2022/03/15 08:09:19;;;;;;;40.12;22.13;;;;;;;3.52;46.95;99446.46;1651597;86;20993;-81
2022/03/15 08:11:52;;;;;;;46.23;21.40;;;;;;;3.67;46.57;99448.14;1723852;83;20980;-85
2022/03/15 08:14:16;;;;;;;41.02;20.90;;;;;;;3.86;46.82;99448.95;1722799;83;20992;-86
2022/03/15 08:16:43;;;;;;;40.52;20.82;;;;;;;4.00;46.64;99440.95;1695089;83;21446;-86
2022/03/15 08:19:11;;;;;;;42.98;21.30;;;;;;;4.19;46.27;99438.70;1711790;83;21056;-85
2022/03/15 08:21:38;;;;;;;37.60;19.90;;;;;;;4.34;46.11;99437.67;1666935;84;21032;-84
2022/03/15 08:24:05;;;;;;;41.75;19.42;;;;;;;4.49;44.33;99440.14;1713010;83;20997;-87
2022/03/15 08:26:32;;;;;;;35.60;18.70;;;;;;;4.64;45.32;99439.52;1711400;83;21056;-85
2022/03/15 08:28:59;;;;;;;33.40;19.65;;;;;;;4.78;44.78;99434.52;1697621;84;21126;-83
2022/03/15 08:31:26;;;;;;;37.93;18.48;;;;;;;4.93;44.96;99434.30;1706722;83;21458;-87
2022/03/15 08:33:52;;;;;;;29.77;16.52;;;;;;;5.06;43.45;99431.02;1716569;83;21119;-85
2022/03/15 08:36:19;;;;;;;29.48;16.00;;;;;;;5.19;43.82;99425.97;1708674;83;21001;-87
2022/03/15 08:38:47;;;;;;;34.20;17.00;;;;;;;5.30;43.30;99420.43;1714250;83;21037;-85
2022/03/15 08:41:14;;;;;;;29.72;15.65;;;;;;;5.39;42.05;99405.21;1715840;83;21016;-85
2022/03/15 08:43:40;;;;;;;28.85;15.45;;;;;;;5.50;42.88;99402.33;1721808;83;20996;-84
2022/03/15 08:46:07;;;;;;;28.83;16.57;;;;;;;5.60;41.88;99406.40;1724134;83;21008;-85
2022/03/15 08:48:33;;;;;;;30.17;16.60;;;;;;;5.62;40.02;99404.23;1722207;83;21011;-85
2022/03/15 08:51:02;;;;;;;30.85;16.27;;;;;;;5.68;38.77;99400.36;1711896;83;21447;-88
2022/03/15 08:53:35;;;;;;;28.25;15.98;;;;;;;5.80;40.77;99400.95;1679886;85;21012;-85
2022/03/15 08:56:00;;;;;;;206.15;97.45;;;;;;;5.94;41.46;99398.48;1698733;83;20950;-87
2022/03/15 08:58:27;;;;;;;35.43;19.60;;;;;;;6.10;40.31;99392.56;1699141;84;21037;-92
2022/03/15 09:00:56;;;;;;;41.37;21.23;;;;;;;6.24;39.47;99394.02;1671611;84;21081;-86
2022/03/15 09:03:24;;;;;;;29.37;15.98;;;;;;;6.38;39.99;99389.78;1687493;84;20985;-85
2022/03/15 09:05:51;;;;;;;24.30;15.58;;;;;;;6.45;37.39;99390.73;1722639;83;21640;-86
2022/03/15 09:08:19;;;;;;;30.23;15.70;;;;;;;6.53;39.49;99381.58;1719598;83;20988;-86
2022/03/15 09:10:45;;;;;;;31.15;16.55;;;;;;;6.57;37.53;99378.11;1719197;83;21390;-88
2022/03/15 09:13:12;;;;;;;43.13;18.40;;;;;;;6.60;38.85;99372.84;1705607;83;21007;-88
2022/03/15 09:15:40;;;;;;;32.35;19.02;;;;;;;6.70;38.75;99372.08;1723354;83;21450;-86
2022/03/15 09:18:08;;;;;;;31.12;18.70;;;;;;;6.83;38.81;99366.90;1719751;83;21059;-86
2022/03/15 09:20:35;;;;;;;32.30;19.02;;;;;;;6.95;39.02;99360.41;1701056;83;20986;-87
2022/03/15 09:23:02;;;;;;;47.33;24.55;;;;;;;7.05;38.76;99360.03;1714373;83;21047;-87
2022/03/15 09:25:32;;;;;;;45.05;24.67;;;;;;;7.17;38.14;99362.28;1723761;83;21474;-87
2022/03/15 09:27:58;;;;;;;44.40;25.20;;;;;;;7.20;37.60;99351.77;1719736;83;21496;-82
2022/03/15 09:30:25;;;;;;;45.50;23.92;;;;;;;7.37;38.73;99353.19;1715995;83;21069;-86
2022/03/15 09:32:51;;;;;;;49.20;27.77;;;;;;;7.46;38.45;99354.98;1723438;83;21071;-83
2022/03/15 09:35:19;;;;;;;48.50;26.25;;;;;;;7.57;37.04;99361.22;1723411;83;21020;-84
2022/03/15 09:37:47;;;;;;;48.17;25.97;;;;;;;7.66;36.60;99352.45;1723391;83;21020;-85
2022/03/15 09:40:14;;;;;;;47.08;26.35;;;;;;;7.76;36.95;99348.97;1718815;83;21008;-83
2022/03/15 09:42:42;;;;;;;52.73;26.95;;;;;;;7.92;36.70;99349.02;1716339;83;21007;-83
2022/03/15 09:45:08;;;;;;;47.78;26.25;;;;;;;8.03;36.33;99345.99;1708953;83;21051;-85
2022/03/15 09:47:38;;;;;;;52.48;28.23;;;;;;;8.15;35.98;99345.56;1673156;84;21495;-85
2022/03/15 09:50:07;;;;;;;48.38;27.65;;;;;;;8.21;34.96;99342.92;1669387;86;20986;-85
2022/03/15 09:52:35;;;;;;;49.13;26.27;;;;;;;8.32;35.84;99331.07;1669417;86;21021;-85
2022/03/15 09:55:03;;;;;;;49.93;26.70;;;;;;;8.48;35.35;99333.30;1683761;83;21063;-85
2022/03/15 09:57:33;;;;;;;46.65;26.62;;;;;;;8.61;35.52;99330.23;1716320;83;21042;-84
2022/03/15 10:00:00;;;;;;;55.95;26.48;;;;;;;8.72;35.60;99324.93;1714802;83;21031;-84
2022/03/15 10:02:27;;;;;;;50.35;25.77;;;;;;;8.82;35.53;99313.50;1708536;83;21069;-84
2022/03/15 10:04:54;;;;;;;42.65;24.18;;;;;;;8.95;34.85;99310.81;1715128;83;21429;-85
2022/03/15 10:07:21;;;;;;;41.73;22.42;;;;;;;9.00;34.15;99306.40;1714450;83;21064;-84
2022/03/15 10:09:48;;;;;;;37.85;22.82;;;;;;;9.10;33.18;99304.63;1715643;83;21006;-85
2022/03/15 10:12:15;;;;;;;39.05;22.35;;;;;;;9.20;33.31;99301.07;1715096;83;21020;-85
2022/03/15 10:14:48;;;;;;;33.58;21.15;;;;;;;9.28;33.69;99298.41;1714126;83;20980;-85
2022/03/15 10:17:16;;;;;;;40.90;20.37;;;;;;;9.44;33.38;99293.94;1712986;83;21011;-84
2022/03/15 10:19:55;;;;;;;36.50;19.50;;;;;;;9.68;33.55;99289.39;1715621;83;21125;-85
2022/03/15 10:22:24;;;;;;;39.08;19.82;;;;;;;9.89;31.95;99283.11;1715994;83;21025;-85
2022/03/15 10:24:52;;;;;;;31.95;18.02;;;;;;;10.09;33.29;99275.48;1703873;83;21549;-85
2022/03/15 10:27:19;;;;;;;28.20;17.37;;;;;;;10.25;32.53;99280.23;1713401;83;21005;-84
2022/03/15 10:29:47;;;;;;;32.45;16.12;;;;;;;10.37;30.74;99266.00;1686411;83;20960;-85
2022/03/15 10:32:16;;;;;;;27.13;16.05;;;;;;;10.38;30.44;99265.11;1711687;83;21028;-84
2022/03/15 10:34:43;;;;;;;31.48;16.23;;;;;;;10.47;29.54;99257.58;1717661;83;21028;-86
2022/03/15 10:37:11;;;;;;;114.00;68.10;;;;;;;10.59;30.56;99261.00;1713183;83;21012;-89
2022/03/15 10:39:39;;;;;;;40.50;22.60;;;;;;;10.76;30.39;99256.86;1714788;83;21501;-89
2022/03/15 10:42:08;;;;;;;31.87;19.92;;;;;;;10.94;29.25;99252.70;1719531;83;21450;-85
2022/03/15 10:44:40;;;;;;;21.97;15.25;;;;;;;10.92;27.84;99248.31;1720207;83;21052;-85
2022/03/15 10:47:12;;;;;;;;;;;;;;;11.09;29.19;99236.19;1726128;83;20992;-85
2022/03/15 10:49:54;;;;;;;23.35;14.43;;;;;;;11.30;28.96;99238.14;1699861;83;20131;-89
2022/03/15 10:52:40;;;;;;;24.80;15.18;;;;;;;11.64;29.59;99235.05;1665443;86;21092;-84
2022/03/15 10:55:28;;;;;;;28.62;14.80;;;;;;;12.14;29.03;99229.88;1698775;84;21442;-85
2022/03/15 10:58:05;;;;;;;25.37;15.40;;;;;;;12.61;27.64;99224.23;1665195;86;21060;-84
2022/03/15 11:00:36;;;;;;;24.25;14.95;;;;;;;12.83;26.38;99224.70;1698806;84;21319;-85
2022/03/15 11:03:19;;;;;;;23.62;14.63;;;;;;;13.18;27.64;99212.52;1699169;84;21039;-87
2022/03/15 11:05:43;;;;;;;22.87;15.15;;;;;;;13.36;25.91;99213.49;1698664;84;21009;-87
2022/03/15 11:08:14;;;;;;;25.52;15.40;;;;;;;13.43;25.49;99212.00;1699069;84;21430;-85
2022/03/15 11:10:47;;;;;;;23.00;14.63;;;;;;;13.54;24.71;99206.44;1699274;84;20984;-86
2022/03/15 11:13:14;;;;;;;23.30;14.58;;;;;;;13.81;25.57;99198.75;1699247;84;20978;-86
2022/03/15 11:15:46;;;;;;;23.62;15.03;;;;;;;13.92;25.95;99197.61;1698944;84;21006;-87
2022/03/15 11:18:15;;;;;;;21.65;14.55;;;;;;;13.90;25.08;99190.98;1699483;84;21014;-85
2022/03/15 11:20:50;;;;;;;21.07;13.10;;;;;;;13.99;25.75;99193.43;1699279;84;21049;-85
2022/03/15 11:23:20;;;;;;;20.32;13.28;;;;;;;13.86;23.51;99185.30;1704394;83;20976;-85